Hodgen, Oklahoma
Current Conditions -  °F | °C
As of 1:15 PM on Tuesday 21 Oct 2014 (Local Time) from KRKR Reporting Station
Clear Clear  
Wind Chill: 76°   Ceiling: Unl
Heat Index: 78°   Visibility: 7mi
Dew Point: 61°   Wind: 0mph
Humidity: 59%   Direction: NA
Pressure: 30.09"   Gusts: NA
Location:  34.84°N, 94.63°W
Report Text: KRKR 211815Z AUTO 00000KT 7SM CLR 25/16 A3009 RMK AO2 T02470163
Loading
Personal Weather Stations






























Interactive Weather Map
Tropical Storm Tracking
New forecast layout! Learn more

10-Day Weather Forecast

Advertisements
Track Severe Weather on mobile